Time;durP1;ratioP1;P1;durP2;ratioP2;P2;SDS_P1;SDS_P2;PMS_P1;PMS_P2;Temp;Humidity;BMP_temperature;BMP_pressure;BME280_temperature;BME280_humidity;BME280_pressure;Samples;Min_cycle;Max_cycle;Signal;HPM_P1;HPM_P2
2021/03/20 00:02:17;;;;;;;8.75;1.20;;;5.80;99.90;;;;;;4976865;28;20534;-77
2021/03/20 00:04:43;;;;;;;3.20;0.80;;;5.90;99.90;;;;;;4976525;28;20181;-78
2021/03/20 00:07:08;;;;;;;6.82;2.55;;;6.00;99.90;;;;;;4975286;28;20288;-78
2021/03/20 00:09:34;;;;;;;1.77;0.95;;;6.00;99.90;;;;;;4976527;28;20169;-78
2021/03/20 00:12:01;;;;;;;0.70;0.60;;;5.90;99.90;;;;;;4976448;28;20177;-77
2021/03/20 00:14:27;;;;;;;0.57;0.57;;;5.80;99.90;;;;;;4976528;28;20212;-77
2021/03/20 00:16:53;;;;;;;0.32;0.32;;;5.80;99.90;;;;;;4976320;28;20198;-78
2021/03/20 00:19:20;;;;;;;0.80;0.80;;;5.80;99.90;;;;;;4976281;28;20252;-77
2021/03/20 00:21:46;;;;;;;0.75;0.75;;;5.80;99.90;;;;;;4976259;28;20170;-77
2021/03/20 00:24:11;;;;;;;0.80;0.80;;;5.80;99.90;;;;;;4976412;28;20223;-79
2021/03/20 00:26:38;;;;;;;0.85;0.85;;;5.80;99.90;;;;;;4976150;28;20539;-77
2021/03/20 00:29:04;;;;;;;0.85;0.85;;;5.80;99.90;;;;;;4976151;28;20576;-77
2021/03/20 00:31:30;;;;;;;3.25;0.95;;;6.10;99.90;;;;;;4976079;28;20159;-78
2021/03/20 00:33:56;;;;;;;1.48;1.23;;;6.20;99.90;;;;;;4976038;28;20188;-77
2021/03/20 00:36:21;;;;;;;4.68;0.80;;;6.20;99.90;;;;;;4975933;28;20173;-78
2021/03/20 00:38:48;;;;;;;0.95;0.95;;;6.30;99.90;;;;;;4976080;28;20166;-78
2021/03/20 00:41:14;;;;;;;0.60;0.60;;;6.20;99.90;;;;;;4975933;28;20150;-78
2021/03/20 00:43:40;;;;;;;0.60;0.60;;;6.30;99.90;;;;;;4976030;28;20297;-78
2021/03/20 00:46:08;;;;;;;0.43;0.43;;;6.30;99.90;;;;;;4975847;28;20170;-78
2021/03/20 00:48:36;;;;;;;0.28;0.28;;;6.40;99.90;;;;;;4975651;28;20206;-78
2021/03/20 00:51:03;;;;;;;0.30;0.30;;;6.70;99.90;;;;;;4975733;28;20158;-78
2021/03/20 00:53:30;;;;;;;0.60;0.60;;;6.50;99.90;;;;;;4975190;28;20736;-78
2021/03/20 00:55:56;;;;;;;0.93;0.93;;;6.20;99.90;;;;;;4975701;28;20185;-78
2021/03/20 00:58:23;;;;;;;0.47;0.47;;;6.30;99.90;;;;;;4975583;28;20248;-78
2021/03/20 01:00:50;;;;;;;0.60;0.60;;;6.10;99.90;;;;;;4975576;28;20649;-78
2021/03/20 01:03:16;;;;;;;0.70;0.70;;;6.10;99.90;;;;;;4975561;28;20228;-77
2021/03/20 01:05:42;;;;;;;4.22;0.88;;;6.10;99.90;;;;;;4975481;28;20626;-78
2021/03/20 01:08:08;;;;;;;1.90;0.70;;;5.90;99.90;;;;;;4975310;28;20198;-78
2021/03/20 01:10:34;;;;;;;1.20;1.20;;;5.90;99.90;;;;;;4958064;28;20224;-78
2021/03/20 01:12:59;;;;;;;0.98;0.98;;;6.00;99.90;;;;;;4975441;28;20169;-78
2021/03/20 01:15:25;;;;;;;0.68;0.68;;;6.10;99.90;;;;;;4975381;28;20166;-78
2021/03/20 01:17:51;;;;;;;0.75;0.47;;;6.00;99.90;;;;;;4957536;28;20720;-78
2021/03/20 01:20:17;;;;;;;1.65;1.20;;;5.60;99.90;;;;;;4975236;28;20170;-78
2021/03/20 01:22:43;;;;;;;4.80;2.15;;;5.40;99.90;;;;;;4975077;28;20198;-78
2021/03/20 01:25:10;;;;;;;0.93;0.93;;;5.40;99.90;;;;;;4957876;28;20255;-78
2021/03/20 01:27:36;;;;;;;1.23;1.08;;;5.50;99.90;;;;;;4975032;28;20206;-77
2021/03/20 01:30:05;;;;;;;0.52;0.52;;;5.60;99.90;;;;;;4975015;28;20302;-78
2021/03/20 01:32:31;;;;;;;0.80;0.80;;;5.60;99.90;;;;;;4975031;28;20249;-77
2021/03/20 01:34:56;;;;;;;0.63;0.63;;;5.60;99.90;;;;;;4958005;28;20642;-78
2021/03/20 01:37:22;;;;;;;0.73;0.73;;;5.50;99.90;;;;;;4974974;28;20546;-77
2021/03/20 01:39:48;;;;;;;3.17;1.83;;;5.30;99.90;;;;;;4957618;28;20209;-77
2021/03/20 01:42:14;;;;;;;0.47;0.47;;;5.30;99.90;;;;;;4974910;28;20166;-77
2021/03/20 01:44:40;;;;;;;1.23;1.20;;;5.20;99.90;;;;;;4974840;28;20162;-78
2021/03/20 01:47:13;;;;;;;0.90;0.90;;;5.40;99.90;;;;;;4974625;28;20182;-78
2021/03/20 01:49:43;;;;;;;1.75;1.15;;;5.40;99.90;;;;;;4974822;28;20708;-77
2021/03/20 01:52:12;;;;;;;0.35;0.35;;;5.40;99.90;;;;;;4974640;28;20557;-77
2021/03/20 01:54:48;;;;;;;1.45;1.40;;;5.40;99.90;;;;;;4974800;28;20166;-78
2021/03/20 01:57:17;;;;;;;0.32;0.32;;;5.20;99.90;;;;;;4957178;28;20207;-77
2021/03/20 01:59:44;;;;;;;0.65;0.65;;;5.00;99.90;;;;;;4977839;28;20308;-77
2021/03/20 02:02:09;;;;;;;0.93;0.93;;;5.20;99.90;;;;;;4994035;28;20176;-77
2021/03/20 02:04:35;;;;;;;1.55;1.48;;;5.20;99.90;;;;;;4993970;28;20162;-77
2021/03/20 02:07:02;;;;;;;1.02;0.98;;;5.10;99.90;;;;;;4993830;28;20679;-77
2021/03/20 02:09:28;;;;;;;4.03;2.95;;;5.20;99.90;;;;;;4993825;28;20512;-77
2021/03/20 02:11:59;;;;;;;0.60;0.60;;;5.40;99.90;;;;;;4993852;28;20169;-77
2021/03/20 02:14:43;;;;;;;0.93;0.93;;;5.10;99.90;;;;;;4994120;28;20192;-77
2021/03/20 02:17:33;;;;;;;0.73;0.73;;;5.00;99.90;;;;;;4993778;28;20226;-77
2021/03/20 02:20:01;;;;;;;1.65;0.95;;;4.90;99.90;;;;;;4993756;28;20643;-78
2021/03/20 02:22:51;;;;;;;0.32;0.32;;;5.00;99.90;;;;;;4993708;28;20629;-77
2021/03/20 02:25:33;;;;;;;0.68;0.68;;;4.90;99.90;;;;;;4993755;28;20576;-77
2021/03/20 02:28:53;;;;;;;0.73;0.73;;;4.70;99.90;;;;;;4993622;28;20598;-77
2021/03/20 02:31:40;;;;;;;4.47;2.20;;;4.80;99.90;;;;;;4918823;29;20183;-77
2021/03/20 02:34:18;;;;;;;0.63;0.63;;;5.00;99.90;;;;;;4992851;28;20288;-76
2021/03/20 02:36:55;;;;;;;0.47;0.47;;;5.10;99.90;;;;;;4997637;28;20197;-77
2021/03/20 02:39:50;;;;;;;2.72;1.40;;;5.00;99.90;;;;;;4997709;28;20165;-76
2021/03/20 02:42:24;;;;;;;0.70;0.70;;;4.80;99.90;;;;;;4996350;28;20165;-76
2021/03/20 02:44:59;;;;;;;1.80;0.93;;;4.90;99.90;;;;;;4997519;28;20208;-77
2021/03/20 02:47:33;;;;;;;2.25;1.25;;;4.80;99.90;;;;;;4997380;28;20263;-77
2021/03/20 02:50:28;;;;;;;0.90;0.90;;;4.70;99.90;;;;;;4996203;28;20588;-77
2021/03/20 02:53:01;;;;;;;1.25;1.17;;;4.90;99.90;;;;;;4983560;28;20189;-77
2021/03/20 02:55:32;;;;;;;0.30;0.30;;;5.00;99.90;;;;;;4997353;28;20172;-78
2021/03/20 02:58:21;;;;;;;0.40;0.40;;;5.00;99.90;;;;;;4997288;28;20227;-77
2021/03/20 03:00:52;;;;;;;0.90;0.75;;;5.00;99.90;;;;;;4997368;28;20276;-77
2021/03/20 03:03:20;;;;;;;0.70;0.70;;;4.80;99.90;;;;;;4997216;28;20656;-77
2021/03/20 03:06:05;;;;;;;0.47;0.47;;;4.90;99.90;;;;;;4997208;28;20169;-77
2021/03/20 03:08:37;;;;;;;1.67;1.02;;;5.00;99.90;;;;;;4996941;28;20307;-77
2021/03/20 03:11:08;;;;;;;1.02;1.02;;;5.00;99.90;;;;;;4997192;28;20258;-77
2021/03/20 03:13:39;;;;;;;4.13;2.30;;;5.00;99.90;;;;;;4996963;28;20171;-77
2021/03/20 03:16:14;;;;;;;3.30;2.38;;;4.80;99.90;;;;;;4996985;28;20636;-77
2021/03/20 03:18:49;;;;;;;1.00;0.90;;;4.70;99.90;;;;;;4996852;28;20185;-77
2021/03/20 03:21:18;;;;;;;0.40;0.40;;;4.50;99.90;;;;;;4996935;28;20236;-78
2021/03/20 03:23:44;;;;;;;2.05;1.88;;;4.60;99.90;;;;;;4996801;28;20247;-77
2021/03/20 03:26:17;;;;;;;0.95;0.95;;;4.80;99.90;;;;;;4996789;28;20620;-77
2021/03/20 03:28:55;;;;;;;1.27;1.27;;;4.90;99.90;;;;;;4996700;28;20205;-77
2021/03/20 03:31:46;;;;;;;0.80;0.80;;;4.90;99.90;;;;;;4995551;28;20165;-77
2021/03/20 03:34:21;;;;;;;2.85;2.22;;;4.90;99.90;;;;;;4995376;28;20679;-77
2021/03/20 03:37:05;;;;;;;0.40;0.40;;;4.90;99.90;;;;;;4996539;28;20726;-78
2021/03/20 03:39:54;;;;;;;0.77;0.77;;;4.90;99.90;;;;;;4996523;28;20252;-77
2021/03/20 03:42:21;;;;;;;0.38;0.38;;;4.90;99.90;;;;;;4995318;28;20169;-77
2021/03/20 03:44:51;;;;;;;1.08;1.08;;;4.90;99.90;;;;;;4996478;28;20160;-76
2021/03/20 03:47:22;;;;;;;1.15;1.15;;;4.90;99.90;;;;;;4996200;28;20272;-77
2021/03/20 03:49:48;;;;;;;0.75;0.75;;;4.90;99.90;;;;;;4996400;28;20228;-76
2021/03/20 03:52:14;;;;;;;0.82;0.82;;;4.70;99.90;;;;;;4996198;28;20636;-77
2021/03/20 03:54:41;;;;;;;1.92;1.30;;;4.60;99.90;;;;;;4996327;28;20165;-78
2021/03/20 03:57:44;;;;;;;2.50;1.10;;;4.70;99.90;;;;;;4996095;28;20186;-78
2021/03/20 04:00:39;;;;;;;0.50;0.50;;;4.60;99.90;;;;;;4980459;28;20307;-78
2021/03/20 04:03:25;;;;;;;0.40;0.40;;;4.60;99.90;;;;;;4976684;28;20558;-79
2021/03/20 04:06:38;;;;;;;0.43;0.43;;;4.50;99.90;;;;;;4976636;28;20181;-79
2021/03/20 04:09:27;;;;;;;1.20;1.10;;;4.50;99.90;;;;;;4890784;28;20365;-79
2021/03/20 04:12:08;;;;;;;1.90;1.45;;;4.80;99.90;;;;;;4976487;28;20249;-78
2021/03/20 04:14:44;;;;;;;0.57;0.57;;;4.70;99.90;;;;;;4976367;28;20229;-77
2021/03/20 04:17:34;;;;;;;2.05;1.08;;;4.70;99.90;;;;;;4976377;28;20185;-78
2021/03/20 04:20:20;;;;;;;0.63;0.63;;;4.70;99.90;;;;;;4976333;28;20174;-78
2021/03/20 04:22:49;;;;;;;0.80;0.80;;;4.60;99.90;;;;;;4958819;28;20165;-77
2021/03/20 04:25:27;;;;;;;1.05;1.05;;;4.60;99.90;;;;;;4976300;28;20178;-77
2021/03/20 04:28:33;;;;;;;0.85;0.85;;;4.40;99.90;;;;;;4975891;28;20205;-78
2021/03/20 04:31:11;;;;;;;11.77;1.27;;;4.10;99.90;;;;;;4939043;28;20660;-78
2021/03/20 04:33:44;;;;;;;2.35;0.80;;;4.00;99.90;;;;;;4976165;28;20252;-78
2021/03/20 04:36:22;;;;;;;0.80;0.80;;;3.90;99.90;;;;;;4975939;28;20532;-78
2021/03/20 04:38:48;;;;;;;3.20;2.20;;;4.00;99.90;;;;;;4958672;28;20169;-78
2021/03/20 04:41:15;;;;;;;2.15;2.05;;;4.30;99.90;;;;;;4975939;28;20166;-78
2021/03/20 04:43:41;;;;;;;0.43;0.43;;;4.50;99.90;;;;;;4958554;28;20534;-78
2021/03/20 04:46:15;;;;;;;0.55;0.55;;;4.50;99.90;;;;;;4975567;28;20177;-78
2021/03/20 04:48:44;;;;;;;0.85;0.85;;;4.60;99.90;;;;;;4958241;28;20693;-80
2021/03/20 04:51:24;;;;;;;1.38;1.38;;;4.50;99.90;;;;;;4975456;28;20197;-77
2021/03/20 04:53:52;;;;;;;1.70;1.13;;;4.70;99.90;;;;;;4975215;28;20189;-77
2021/03/20 04:56:21;;;;;;;0.75;0.75;;;4.90;99.90;;;;;;4958140;28;20529;-77
2021/03/20 04:58:59;;;;;;;0.60;0.60;;;4.80;99.90;;;;;;4975419;28;20250;-78
2021/03/20 05:01:34;;;;;;;0.65;0.65;;;4.70;99.90;;;;;;4975984;28;20625;-79
2021/03/20 05:04:17;;;;;;;0.75;0.75;;;4.30;99.90;;;;;;4975666;28;20165;-78
2021/03/20 05:06:43;;;;;;;0.82;0.82;;;4.10;99.90;;;;;;4975374;28;20213;-78
2021/03/20 05:09:19;;;;;;;1.23;1.23;;;4.00;99.90;;;;;;4975335;28;20210;-77
2021/03/20 05:11:54;;;;;;;0.77;0.77;;;4.10;99.90;;;;;;4975340;28;20166;-77
2021/03/20 05:14:37;;;;;;;0.80;0.80;;;4.20;99.90;;;;;;4975482;28;20252;-79
2021/03/20 05:17:09;;;;;;;2.42;2.25;;;4.10;99.90;;;;;;4975259;28;20244;-78
2021/03/20 05:19:35;;;;;;;0.63;0.63;;;4.10;99.90;;;;;;4975153;28;20647;-77
2021/03/20 05:22:01;;;;;;;1.27;0.93;;;4.10;99.90;;;;;;4975292;28;20224;-78
2021/03/20 05:24:33;;;;;;;0.85;0.85;;;4.00;99.90;;;;;;4975138;28;20158;-79
2021/03/20 05:27:00;;;;;;;1.27;1.10;;;3.90;99.90;;;;;;4975061;28;20190;-78
2021/03/20 05:29:26;;;;;;;41.67;3.40;;;3.90;99.90;;;;;;4975016;28;20537;-78
2021/03/20 05:31:53;;;;;;;4.32;2.75;;;3.90;99.90;;;;;;4975054;28;20173;-79
2021/03/20 05:34:40;;;;;;;0.65;0.65;;;3.90;99.90;;;;;;4974991;28;20154;-78
2021/03/20 05:37:08;;;;;;;0.73;0.73;;;4.00;99.90;;;;;;4974825;28;20285;-78
2021/03/20 05:39:34;;;;;;;0.38;0.38;;;4.10;99.90;;;;;;4974851;28;20246;-77
2021/03/20 05:42:29;;;;;;;8.73;2.38;;;4.20;99.90;;;;;;4974774;28;20166;-77
2021/03/20 05:45:18;;;;;;;3.10;1.15;;;4.30;99.90;;;;;;4937611;28;20650;-78
2021/03/20 05:48:17;;;;;;;2.08;1.98;;;4.00;99.90;;;;;;4957205;28;20217;-77
2021/03/20 05:51:23;;;;;;;0.75;0.75;;;3.60;99.90;;;;;;4974949;28;20509;-78
2021/03/20 05:54:15;;;;;;;0.73;0.73;;;3.60;99.90;;;;;;4974589;28;20166;-78
2021/03/20 05:57:34;;;;;;;1.15;1.15;;;3.70;99.90;;;;;;4974385;28;20571;-77
2021/03/20 06:00:19;;;;;;;1.55;1.45;;;4.00;99.90;;;;;;4904803;29;20239;-77
2021/03/20 06:02:50;;;;;;;0.82;0.82;;;4.00;99.90;;;;;;4994014;28;20173;-77
2021/03/20 06:05:30;;;;;;;1.90;1.67;;;4.20;99.90;;;;;;4992557;28;20177;-77
2021/03/20 06:08:10;;;;;;;1.70;0.68;;;4.00;99.90;;;;;;4992508;28;20688;-77
2021/03/20 06:11:01;;;;;;;1.48;0.95;;;3.90;99.90;;;;;;4993599;28;20231;-77
2021/03/20 06:14:00;;;;;;;0.98;0.98;;;4.00;99.90;;;;;;4993901;28;20200;-77
2021/03/20 06:16:43;;;;;;;0.70;0.70;;;4.10;99.90;;;;;;4993770;28;20167;-78
2021/03/20 06:19:27;;;;;;;0.70;0.70;;;4.20;99.90;;;;;;4993752;28;20216;-78
2021/03/20 06:22:33;;;;;;;1.23;1.23;;;4.20;99.90;;;;;;4993494;28;20162;-77
2021/03/20 06:25:02;;;;;;;1.15;1.15;;;4.10;99.90;;;;;;4992376;28;20544;-77
2021/03/20 06:27:35;;;;;;;3.85;1.65;;;4.30;99.90;;;;;;4993568;28;20227;-78
2021/03/20 06:30:29;;;;;;;1.50;1.40;;;4.30;99.90;;;;;;4993666;28;20633;-78
2021/03/20 06:33:04;;;;;;;3.45;1.40;;;4.10;99.90;;;;;;4993684;28;20169;-77
2021/03/20 06:35:37;;;;;;;0.75;0.57;;;4.20;99.90;;;;;;4993587;28;20161;-77
2021/03/20 06:38:06;;;;;;;0.95;0.95;;;4.50;99.90;;;;;;4993317;28;20185;-78
2021/03/20 06:40:34;;;;;;;1.10;1.10;;;4.70;99.90;;;;;;4993555;28;20177;-78
2021/03/20 06:43:00;;;;;;;1.65;1.42;;;4.80;99.90;;;;;;4993504;28;20177;-77
2021/03/20 06:45:33;;;;;;;2.05;1.95;;;4.80;99.90;;;;;;4992090;28;20181;-77
2021/03/20 06:48:21;;;;;;;5.57;1.40;;;4.70;99.90;;;;;;4993369;28;20203;-78
2021/03/20 06:50:50;;;;;;;25.35;1.77;;;4.50;99.90;;;;;;4993374;28;20177;-78
2021/03/20 06:53:18;;;;;;;2.55;2.35;;;4.50;99.90;;;;;;4993419;28;20245;-78
2021/03/20 06:55:49;;;;;;;1.85;1.75;;;4.40;99.90;;;;;;4992231;28;20517;-78
2021/03/20 06:58:47;;;;;;;0.90;0.90;;;4.60;99.90;;;;;;4992969;28;20530;-77
2021/03/20 07:01:47;;;;;;;0.82;0.82;;;4.90;99.90;;;;;;4953269;28;20190;-78
2021/03/20 07:04:49;;;;;;;1.63;1.52;;;4.80;99.90;;;;;;4973941;28;20252;-77
2021/03/20 07:07:56;;;;;;;1.55;1.30;;;4.80;99.90;;;;;;4973725;28;20208;-78
2021/03/20 07:10:46;;;;;;;0.38;0.38;;;5.00;99.90;;;;;;4973891;28;20181;-78
2021/03/20 07:13:20;;;;;;;1.10;1.10;;;5.30;99.90;;;;;;4973879;28;20579;-78
2021/03/20 07:16:15;;;;;;;1.40;1.35;;;5.30;99.90;;;;;;4975447;28;20237;-77
2021/03/20 07:18:50;;;;;;;1.75;1.65;;;5.10;99.90;;;;;;4977433;28;20177;-79
2021/03/20 07:22:05;;;;;;;1.40;1.35;;;4.80;99.90;;;;;;4977278;28;20690;-77
2021/03/20 07:24:39;;;;;;;1.00;1.00;;;4.90;99.90;;;;;;4948135;28;20188;-78
2021/03/20 07:27:28;;;;;;;1.70;1.65;;;5.10;99.90;;;;;;4977078;28;20621;-83
2021/03/20 07:30:34;;;;;;;1.25;1.25;;;5.00;99.90;;;;;;4958837;28;20243;-77
2021/03/20 07:33:00;;;;;;;1.33;1.33;;;5.20;99.90;;;;;;4943018;28;20185;-77
2021/03/20 07:35:34;;;;;;;1.27;1.27;;;5.20;99.90;;;;;;4976818;28;20181;-77
2021/03/20 07:38:26;;;;;;;0.40;0.40;;;5.00;99.90;;;;;;4977062;28;20716;-78
2021/03/20 07:41:11;;;;;;;1.38;1.27;;;4.90;99.90;;;;;;4977079;28;20628;-77
2021/03/20 07:43:37;;;;;;;1.90;1.80;;;4.90;99.90;;;;;;4977025;28;20174;-77
2021/03/20 07:46:11;;;;;;;1.48;1.38;;;4.90;99.90;;;;;;4976946;28;20169;-78
2021/03/20 07:48:36;;;;;;;1.17;1.15;;;4.80;99.90;;;;;;4975905;28;20661;-79
2021/03/20 07:51:07;;;;;;;1.40;1.35;;;4.80;99.90;;;;;;4976422;28;20202;-77
2021/03/20 07:53:41;;;;;;;0.90;0.90;;;5.00;99.90;;;;;;4976681;28;20177;-78
2021/03/20 07:56:23;;;;;;;1.00;1.00;;;5.20;99.90;;;;;;4976848;28;20173;-77
2021/03/20 07:58:51;;;;;;;1.38;1.38;;;5.40;99.90;;;;;;4975704;28;20213;-80
2021/03/20 08:01:22;;;;;;;0.85;0.85;;;5.50;99.90;;;;;;4975817;28;20248;-81
2021/03/20 08:03:57;;;;;;;0.98;0.98;;;5.50;99.90;;;;;;4976491;28;20180;-80
2021/03/20 08:06:31;;;;;;;1.00;1.00;;;5.40;99.90;;;;;;4976262;28;20205;-79
2021/03/20 08:09:19;;;;;;;3.20;2.03;;;5.50;99.90;;;;;;4976346;28;20201;-79
2021/03/20 08:11:47;;;;;;;1.23;1.23;;;5.40;99.90;;;;;;4976243;28;20165;-79
2021/03/20 08:14:35;;;;;;;0.82;0.82;;;5.30;99.90;;;;;;4978349;28;20221;-88
2021/03/20 08:17:01;;;;;;;3.30;1.35;;;5.50;99.90;;;;;;4940092;29;20278;-78
2021/03/20 08:19:31;;;;;;;1.10;1.10;;;5.70;99.90;;;;;;4956401;29;20221;-82
2021/03/20 08:22:24;;;;;;;0.85;0.70;;;5.80;99.90;;;;;;4939562;29;20257;-80
2021/03/20 08:25:25;;;;;;;1.63;1.52;;;5.70;99.90;;;;;;4956586;29;20576;-79
2021/03/20 08:28:00;;;;;;;0.57;0.57;;;5.60;99.90;;;;;;4955577;28;20202;-80
2021/03/20 08:30:46;;;;;;;2.80;2.00;;;5.60;99.90;;;;;;4939300;29;20649;-80
2021/03/20 08:33:53;;;;;;;2.85;2.00;;;5.70;99.90;;;;;;4956661;29;20166;-79
2021/03/20 08:36:42;;;;;;;1.58;1.48;;;5.80;99.90;;;;;;4911915;29;20197;-77
2021/03/20 08:39:45;;;;;;;0.90;0.90;;;5.90;99.90;;;;;;4956636;29;20170;-78
2021/03/20 08:42:36;;;;;;;1.35;1.33;;;6.00;99.90;;;;;;4956507;29;20221;-79
2021/03/20 08:45:19;;;;;;;1.15;1.13;;;6.00;99.90;;;;;;4956372;29;20158;-78
2021/03/20 08:48:00;;;;;;;1.67;1.33;;;6.30;99.90;;;;;;4956171;29;20205;-77
2021/03/20 08:50:55;;;;;;;1.30;1.20;;;6.30;99.90;;;;;;4956213;29;20213;-76
2021/03/20 08:53:34;;;;;;;0.85;0.85;;;6.60;99.90;;;;;;4956274;29;20194;-83
2021/03/20 08:56:06;;;;;;;1.35;1.33;;;6.60;99.90;;;;;;4955858;29;20612;-78
2021/03/20 08:58:56;;;;;;;2.47;1.83;;;6.80;99.90;;;;;;4940872;28;20238;-78
2021/03/20 09:01:37;;;;;;;0.57;0.57;;;6.80;99.90;;;;;;4975187;28;20206;-79
2021/03/20 09:04:07;;;;;;;2.10;1.98;;;7.00;99.90;;;;;;4975274;28;20161;-79
2021/03/20 09:06:35;;;;;;;0.90;0.90;;;7.00;99.90;;;;;;4973574;28;20673;-79
2021/03/20 09:09:17;;;;;;;2.03;1.42;;;7.10;99.90;;;;;;4973541;28;20309;-79
2021/03/20 09:12:01;;;;;;;0.95;0.95;;;7.20;99.90;;;;;;4974921;28;20249;-78
2021/03/20 09:14:48;;;;;;;1.20;1.20;;;7.40;99.90;;;;;;4975047;28;20168;-79
2021/03/20 09:17:30;;;;;;;1.52;1.38;;;7.60;99.90;;;;;;4975075;28;20253;-76
2021/03/20 09:20:28;;;;;;;2.08;1.42;;;7.40;99.90;;;;;;4973864;28;20260;-78
2021/03/20 09:22:56;;;;;;;1.65;1.63;;;7.60;99.90;;;;;;4964712;28;20185;-78
2021/03/20 09:25:33;;;;;;;1.15;1.05;;;7.20;99.90;;;;;;4974980;28;20634;-78
2021/03/20 09:28:14;;;;;;;0.68;0.65;;;6.90;99.90;;;;;;4973475;28;20220;-79
2021/03/20 09:30:43;;;;;;;0.30;0.30;;;6.90;99.90;;;;;;4974893;28;20232;-77
2021/03/20 09:33:20;;;;;;;2.05;1.23;;;6.80;99.90;;;;;;4974890;28;20221;-75
2021/03/20 09:35:49;;;;;;;1.42;1.33;;;6.70;99.90;;;;;;4974504;28;20285;-79
2021/03/20 09:38:33;;;;;;;1.65;1.35;;;6.80;99.90;;;;;;4974446;28;20198;-77
2021/03/20 09:41:20;;;;;;;1.73;1.63;;;6.90;99.90;;;;;;4974640;28;20162;-80
2021/03/20 09:43:50;;;;;;;0.95;0.95;;;7.20;99.90;;;;;;4961208;28;20196;-79
2021/03/20 09:46:38;;;;;;;1.55;1.10;;;7.20;99.90;;;;;;4974418;28;20225;-79
2021/03/20 09:49:23;;;;;;;0.80;0.80;;;7.30;99.90;;;;;;4974475;28;20216;-77
2021/03/20 09:51:53;;;;;;;2.22;1.55;;;7.40;99.90;;;;;;4956709;28;20316;-78
2021/03/20 09:54:25;;;;;;;1.00;0.98;;;7.20;99.90;;;;;;4974433;28;20170;-79
2021/03/20 09:59:43;;;;;;;0.80;0.80;;;7.60;99.90;;;;;;4974032;28;20728;-78
2021/03/20 10:02:14;;;;;;;1.08;1.00;;;7.60;99.90;;;;;;4973001;28;20201;-76
2021/03/20 10:04:52;;;;;;;1.20;1.10;;;7.60;99.90;;;;;;4973060;28;20622;-77
2021/03/20 10:07:20;;;;;;;5.47;1.67;;;7.60;99.90;;;;;;4974030;28;20189;-78
2021/03/20 10:10:08;;;;;;;0.40;0.40;;;7.80;99.90;;;;;;4974138;28;20274;-78
2021/03/20 10:12:42;;;;;;;0.45;0.45;;;8.20;99.90;;;;;;4972670;28;20181;-79
2021/03/20 10:15:14;;;;;;;33.80;2.72;;;7.90;99.90;;;;;;4974147;28;20165;-78
2021/03/20 10:18:04;;;;;;;1.90;1.10;;;7.90;99.90;;;;;;4973990;28;20252;-80
2021/03/20 10:20:50;;;;;;;1.85;1.13;;;7.80;99.90;;;;;;4974182;28;20192;-79
2021/03/20 10:23:41;;;;;;;1.23;0.80;;;7.60;99.90;;;;;;4973983;28;20220;-77
2021/03/20 10:26:30;;;;;;;6.15;1.73;;;7.70;99.90;;;;;;4973972;28;20170;-79
2021/03/20 10:29:01;;;;;;;1.40;1.30;;;7.60;99.90;;;;;;4974268;28;20216;-77
2021/03/20 10:31:41;;;;;;;1.63;0.82;;;7.40;99.90;;;;;;4973969;28;20253;-79
2021/03/20 10:34:10;;;;;;;1.15;1.05;;;7.70;99.90;;;;;;4972739;28;20617;-79
2021/03/20 10:36:42;;;;;;;0.70;0.70;;;7.80;99.90;;;;;;4973934;28;20194;-79
2021/03/20 10:39:27;;;;;;;0.75;0.75;;;8.00;99.90;;;;;;4974133;28;20236;-80
2021/03/20 10:41:58;;;;;;;0.30;0.30;;;8.10;99.90;;;;;;4974002;28;20181;-79
2021/03/20 10:44:29;;;;;;;0.57;0.57;;;7.70;99.90;;;;;;4974097;28;20172;-78
2021/03/20 10:47:06;;;;;;;0.50;0.50;;;7.90;99.90;;;;;;4972308;28;20226;-79
2021/03/20 10:49:39;;;;;;;1.10;0.90;;;7.90;99.90;;;;;;4972528;28;20209;-79
2021/03/20 10:52:15;;;;;;;0.45;0.45;;;8.10;99.90;;;;;;4976420;28;20173;-78
2021/03/20 10:54:44;;;;;;;1.05;1.02;;;8.10;99.90;;;;;;4977709;28;20356;-78
2021/03/20 10:57:15;;;;;;;1.13;1.13;;;8.20;99.90;;;;;;4977498;28;20245;-78
2021/03/20 10:59:43;;;;;;;0.77;0.77;;;8.30;99.90;;;;;;4977303;28;20253;-78
2021/03/20 11:02:31;;;;;;;0.70;0.70;;;8.40;99.90;;;;;;4977492;28;20699;-78
2021/03/20 11:05:31;;;;;;;0.40;0.40;;;8.40;99.90;;;;;;4977402;28;20166;-81
2021/03/20 11:08:01;;;;;;;1.88;1.27;;;8.40;99.90;;;;;;4935176;28;20308;-78
2021/03/20 11:10:33;;;;;;;1.13;1.02;;;8.40;99.90;;;;;;4977733;28;20178;-78
2021/03/20 11:13:06;;;;;;;0.90;0.90;;;8.20;99.90;;;;;;4977285;28;20544;-78
2021/03/20 11:15:34;;;;;;;0.30;0.30;;;8.20;99.90;;;;;;4977596;28;20170;-79
2021/03/20 11:18:01;;;;;;;0.63;0.63;;;8.20;99.90;;;;;;4977746;28;20190;-79
2021/03/20 11:20:35;;;;;;;2.70;2.35;;;8.50;99.90;;;;;;4977133;28;20177;-79
2021/03/20 11:23:03;;;;;;;0.65;0.50;;;8.60;99.90;;;;;;4977052;28;20169;-79
2021/03/20 11:25:28;;;;;;;1.45;1.35;;;8.80;99.90;;;;;;4977425;28;20169;-78
2021/03/20 11:28:05;;;;;;;0.80;0.80;;;8.60;99.90;;;;;;4977105;28;20213;-80
2021/03/20 11:30:46;;;;;;;1.27;0.60;;;8.40;99.90;;;;;;4977079;28;20649;-80
2021/03/20 11:33:18;;;;;;;0.85;0.73;;;8.20;99.90;;;;;;4977044;28;20197;-79
2021/03/20 11:35:47;;;;;;;0.50;0.50;;;8.20;99.90;;;;;;4976929;28;20162;-80
2021/03/20 11:38:15;;;;;;;0.52;0.40;;;8.40;99.90;;;;;;4975460;28;20205;-78
2021/03/20 11:40:49;;;;;;;0.20;0.20;;;8.40;99.90;;;;;;4976921;28;20237;-79
2021/03/20 11:43:22;;;;;;;0.77;0.77;;;8.40;99.90;;;;;;4975570;28;20275;-80
2021/03/20 11:45:51;;;;;;;0.35;0.35;;;8.40;99.90;;;;;;4976304;28;20634;-79
2021/03/20 11:48:19;;;;;;;0.20;0.20;;;8.40;99.90;;;;;;4976496;28;20259;-78
2021/03/20 11:50:52;;;;;;;0.55;0.55;;;8.30;99.90;;;;;;4976488;28;20166;-79
2021/03/20 11:53:32;;;;;;;0.40;0.40;;;8.60;99.90;;;;;;4976282;28;20204;-78
2021/03/20 11:55:59;;;;;;;0.47;0.47;;;8.60;99.90;;;;;;4976460;28;20165;-77
2021/03/20 11:58:33;;;;;;;0.30;0.30;;;8.70;99.90;;;;;;4976406;28;20200;-79
2021/03/20 12:01:21;;;;;;;0.63;0.63;;;8.60;99.90;;;;;;4976432;28;20240;-80
2021/03/20 12:03:47;;;;;;;0.52;0.52;;;8.70;99.90;;;;;;4975031;28;20189;-76
2021/03/20 12:06:16;;;;;;;0.35;0.35;;;8.60;99.90;;;;;;4976268;28;20170;-77
2021/03/20 12:08:56;;;;;;;1.48;0.55;;;8.80;99.90;;;;;;4978591;28;20292;-78
2021/03/20 12:11:44;;;;;;;1.00;1.00;;;8.80;99.90;;;;;;4992455;28;20688;-78
2021/03/20 12:14:28;;;;;;;0.20;0.20;;;8.70;99.90;;;;;;4976699;28;20653;-78
2021/03/20 12:17:03;;;;;;;0.40;0.40;;;8.60;99.90;;;;;;4992968;28;20610;-77
2021/03/20 12:19:29;;;;;;;0.60;0.60;;;8.70;99.90;;;;;;4994404;28;20191;-78
2021/03/20 12:21:56;;;;;;;0.35;0.30;;;8.80;99.90;;;;;;4993408;28;20183;-80
2021/03/20 12:24:30;;;;;;;2.25;1.17;;;8.90;99.90;;;;;;4993365;28;20276;-78
2021/03/20 12:27:16;;;;;;;0.35;0.35;;;8.90;99.90;;;;;;4975806;28;20197;-76
2021/03/20 12:29:45;;;;;;;0.30;0.30;;;8.90;99.90;;;;;;4974468;28;20679;-78
2021/03/20 12:32:22;;;;;;;0.40;0.40;;;9.00;99.90;;;;;;4974844;28;20178;-77
2021/03/20 12:34:49;;;;;;;0.20;0.20;;;9.20;97.20;;;;;;4974892;28;20162;-76
2021/03/20 12:37:21;;;;;;;0.40;0.40;;;9.10;98.10;;;;;;4974894;28;20194;-78
2021/03/20 12:39:50;;;;;;;0.20;0.20;;;9.30;98.00;;;;;;4974166;28;20192;-79
2021/03/20 12:42:17;;;;;;;0.30;0.30;;;9.40;99.30;;;;;;4975336;28;20181;-77
2021/03/20 12:44:48;;;;;;;0.50;0.50;;;9.50;99.60;;;;;;4974595;28;20277;-77
2021/03/20 12:49:40;;;;;;;0.38;0.32;;;9.50;99.10;;;;;;4989542;28;20287;-78
2021/03/20 12:52:15;;;;;;;0.47;0.47;;;9.50;99.70;;;;;;4987434;28;20161;-79
2021/03/20 12:54:44;;;;;;;0.43;0.43;;;9.40;99.60;;;;;;4990541;28;20158;-80
2021/03/20 12:57:36;;;;;;;0.28;0.28;;;9.50;99.90;;;;;;4989599;28;20193;-79
2021/03/20 13:00:11;;;;;;;0.57;0.57;;;9.70;99.90;;;;;;4959465;28;20317;-78
2021/03/20 13:02:38;;;;;;;0.20;0.20;;;9.80;99.90;;;;;;4937938;29;20170;-77
2021/03/20 13:05:06;;;;;;;0.60;0.57;;;9.50;99.90;;;;;;4955853;29;20167;-80
2021/03/20 13:07:32;;;;;;;0.65;0.65;;;9.50;99.90;;;;;;4955745;28;20186;-79
2021/03/20 13:09:58;;;;;;;0.68;0.68;;;9.40;99.90;;;;;;4955308;29;20175;-77
2021/03/20 13:12:23;;;;;;;0.63;0.63;;;9.40;99.90;;;;;;4955268;28;20183;-79
2021/03/20 13:14:49;;;;;;;0.80;0.80;;;9.40;99.90;;;;;;4955611;29;20185;-80
2021/03/20 13:17:15;;;;;;;1.25;1.13;;;9.40;99.90;;;;;;4955965;28;20209;-77
2021/03/20 13:19:41;;;;;;;2.05;0.70;;;9.60;99.90;;;;;;4938173;29;20261;-80
2021/03/20 13:22:08;;;;;;;0.50;0.50;;;9.90;98.80;;;;;;4955184;29;20258;-79
2021/03/20 13:24:34;;;;;;;0.50;0.47;;;10.10;98.60;;;;;;4955363;29;20660;-80
2021/03/20 13:27:01;;;;;;;1.00;1.00;;;9.90;98.90;;;;;;4955514;28;20218;-79
2021/03/20 13:29:27;;;;;;;0.52;0.52;;;9.90;99.60;;;;;;4938131;29;20214;-81
2021/03/20 13:31:53;;;;;;;0.70;0.70;;;9.90;99.90;;;;;;4955313;29;20625;-79
2021/03/20 13:34:19;;;;;;;1.95;0.80;;;10.00;99.50;;;;;;4955079;29;20167;-80
2021/03/20 13:36:45;;;;;;;0.65;0.40;;;10.10;98.60;;;;;;4937974;29;20561;-78
2021/03/20 13:39:11;;;;;;;0.28;0.28;;;10.00;98.90;;;;;;4955205;29;20746;-79
2021/03/20 13:41:38;;;;;;;0.60;0.60;;;10.20;98.80;;;;;;4955310;29;20158;-82
2021/03/20 13:44:05;;;;;;;0.60;0.60;;;10.00;98.60;;;;;;4955321;29;20167;-77
2021/03/20 13:46:30;;;;;;;0.82;0.82;;;9.90;98.40;;;;;;4954762;28;20186;-79
2021/03/20 13:48:56;;;;;;;0.55;0.55;;;10.20;98.30;;;;;;4953843;29;20216;-80